createdAt,value
2022-11-04T00:00:03.090Z,92.5
2022-11-04T00:30:02.665Z,92.8
2022-11-04T00:45:03.107Z,92.8
2022-11-04T01:00:02.530Z,92.4
2022-11-04T01:15:02.980Z,92.6
2022-11-04T01:30:02.538Z,92.8
2022-11-04T01:45:02.838Z,93.1
2022-11-04T02:00:02.280Z,93.3
2022-11-04T02:15:02.728Z,93.5
2022-11-04T02:30:03.169Z,93.6
2022-11-04T02:45:02.606Z,93.6
2022-11-04T03:00:03.034Z,93.7
2022-11-04T03:15:02.575Z,93.4
2022-11-04T03:30:02.963Z,93.0
2022-11-04T03:45:02.541Z,92.6
2022-11-04T04:00:02.907Z,92.3
2022-11-04T04:15:02.205Z,92.5
2022-11-04T04:30:02.674Z,92.2
2022-11-04T04:45:03.119Z,92.4
2022-11-04T05:00:02.584Z,92.0
2022-11-04T05:15:02.993Z,91.6
2022-11-04T05:30:02.717Z,91.0
2022-11-04T05:45:02.869Z,90.9
2022-11-04T06:00:02.312Z,90.6
2022-11-04T06:15:02.734Z,90.1
2022-11-04T06:30:03.209Z,89.4
2022-11-04T06:45:02.637Z,88.8
2022-11-04T07:00:03.093Z,88.7
2022-11-04T07:15:02.616Z,88.8
2022-11-04T07:30:02.960Z,88.9
2022-11-04T07:45:02.592Z,88.7
2022-11-04T08:00:02.811Z,88.7
2022-11-04T08:15:03.259Z,89.1
2022-11-04T08:30:02.701Z,88.9
2022-11-04T08:45:03.139Z,88.7
2022-11-04T09:00:02.612Z,87.5
2022-11-04T09:15:03.019Z,84.3
2022-11-04T09:30:02.628Z,84.2
2022-11-04T09:45:22.070Z,79.0
2022-11-04T10:00:02.316Z,79.7
2022-11-04T10:15:02.742Z,79.8
2022-11-04T10:30:03.190Z,80.2
2022-11-04T10:45:02.662Z,79.1
2022-11-04T11:00:03.065Z,76.4
2022-11-04T11:15:02.656Z,74.3
2022-11-04T11:30:02.939Z,70.4
2022-11-04T11:45:02.392Z,71.2
2022-11-04T12:15:02.263Z,65.9
2022-11-04T12:30:02.717Z,69.7
2022-11-04T12:45:03.171Z,65.3
2022-11-04T13:00:02.689Z,67.7
2022-11-04T13:15:03.046Z,71.2
2022-11-04T13:30:02.691Z,71.9
2022-11-04T13:45:02.913Z,70.3
2022-11-04T14:00:02.366Z,69.7
2022-11-04T14:15:02.804Z,71.8
2022-11-04T14:30:02.231Z,73.4
2022-11-04T14:45:02.711Z,74.3
2022-11-04T15:00:03.129Z,75.4
2022-11-04T15:15:02.707Z,76.3
2022-11-04T15:30:03.150Z,77.4
2022-11-04T15:45:02.447Z,78.2
2022-11-04T16:00:02.960Z,78.2
2022-11-04T16:15:02.335Z,78.5
2022-11-04T16:30:02.760Z,78.1
2022-11-04T16:45:03.181Z,78.2
2022-11-04T17:00:02.725Z,78.3
2022-11-04T17:15:03.086Z,79.5
2022-11-04T17:30:02.735Z,80.0
2022-11-04T17:45:02.967Z,81.1
2022-11-04T18:00:02.397Z,84.1
2022-11-04T18:15:02.873Z,85.9
2022-11-04T18:30:02.281Z,87.7
2022-11-04T18:45:02.738Z,88.7
2022-11-04T19:00:03.176Z,88.4
2022-11-04T19:15:02.744Z,88.6
2022-11-04T19:30:03.060Z,89.1
2022-11-04T19:45:02.669Z,88.5
2022-11-04T20:00:02.950Z,89.3
2022-11-04T20:15:02.356Z,89.6
2022-11-04T20:30:02.823Z,91.6
2022-11-04T20:45:03.255Z,92.6
2022-11-04T21:00:02.784Z,93.1
2022-11-04T21:15:03.141Z,93.1
2022-11-04T21:30:02.768Z,93.4
2022-11-04T21:45:02.998Z,93.0
2022-11-04T22:00:02.441Z,92.6
2022-11-04T22:15:02.919Z,92.3
2022-11-04T22:30:02.321Z,92.2
2022-11-04T22:45:02.808Z,92.6
2022-11-04T23:00:02.215Z,92.8
2022-11-04T23:15:02.809Z,92.7
2022-11-04T23:30:02.114Z,92.4
2022-11-04T23:45:02.556Z,92.2
